• Join FlightAware (Why Join?)
  • Login
  • US Flag 
05:09AM EDT


 

Airport Tracker/Info


-or-


 

Live Flight TrackerFlight Track Log ✈ SWG606 ✈ 15-Jun-2014 ✈ CYUL - MUCC / CCC

Flight Track Log - Related Links

Times and Time Zones

All times are in EDT time to prevent confusion due to time zone crossing. See the SWG606 flight status page for this flight to view local times or setup timezone preferences in your user account.

Time Position Orientation Groundspeed Altitude Reporting Facility
EDT Latitude Longitude Course Direction KTS MPH feet Rate Location/Type
03:40PM 45.4610 -73.7650 221° Southwest 172 198 600  Level FlightAware ADS-B
03:41PM 45.4510 -73.7770 221° Southwest 175 201 1,200 1,680 Climbing FlightAware ADS-B
03:41PM 45.4380 -73.7930 221° Southwest 198 228 1,600 1,260 Climbing FlightAware ADS-B
03:41PM 45.4250 -73.8090 221° Southwest 219 252 2,000 1,920 Climbing FlightAware ADS-B
03:42PM 45.4110 -73.8260 222° Southwest 223 257 2,800 2,280 Climbing FlightAware ADS-B
03:42PM 45.3960 -73.8440 222° Southwest 237 273 3,400 1,560 Climbing FlightAware ADS-B
03:42PM 45.3810 -73.8630 222° Southwest 263 303 3,700 1,800 Climbing FlightAware ADS-B
03:42PM 45.3690 -73.8760 212° Southwest 269 310 4,300 2,520 Climbing FlightAware ADS-B
03:42PM 45.3620 -73.8810 206° Southwest 274 315 4,500 1,500 Climbing FlightAware ADS-B
03:43PM 45.3540 -73.8850 200° South 281 323 4,600 1,980 Climbing FlightAware ADS-B
03:43PM 45.3310 -73.8940 196° South 293 337 5,300 2,580 Climbing FlightAware ADS-B
03:43PM 45.3080 -73.9030 197° South 296 341 6,200 3,000 Climbing FlightAware ADS-B
03:43PM 45.2840 -73.9130 194° South 297 342 7,100 2,880 Climbing FlightAware ADS-B
03:44PM 45.2680 -73.9160 186° South 299 344 7,600 2,640 Climbing FlightAware ADS-B
03:44PM 45.2510 -73.9160 136° Southeast 287 330 8,200 3,000 Climbing FlightAware ADS-B
03:44PM 45.2430 -73.9160 177° South 301 346 8,500 2,820 Climbing FlightAware ADS-B
03:44PM 45.2180 -73.9140 177° South 302 348 9,300 2,340 Climbing FlightAware ADS-B
03:45PM 45.1784 -73.9128 178° South 314 361 10,300 1,800 Climbing FlightAware ADS-B (CYOW)
03:45PM 45.1660 -73.9120 178° South 325 374 10,400 960 Climbing FlightAware ADS-B
03:45PM 45.1506 -73.9115 178° South 348 400 10,800 1,200 Climbing FlightAware ADS-B (CYOW)
03:45PM 45.1190 -73.9100 177° South 357 411 11,000 1,680 Climbing FlightAware ADS-B
03:46PM 45.0680 -73.9080 178° South 373 429 11,900 2,040 Climbing FlightAware ADS-B
03:46PM 45.0050 -73.9050 177° South 384 442 13,300 2,580 Climbing FlightAware ADS-B
03:47PM 44.9410 -73.9020 177° South 387 445 15,000 2,760 Climbing FlightAware ADS-B
03:47PM 44.9431 -73.9017 178° South 387 445 15,300 2,100 Climbing FlightAware ADS-B (CYOW)
03:48PM 44.8760 -73.8990 177° South 400 460 16,300 2,220 Climbing FlightAware ADS-B
03:48PM 44.8391 -73.8969 178° South 401 461 17,200 2,520 Climbing FlightAware ADS-B (CYOW)
03:48PM 44.8090 -73.8960 178° South 402 463 17,800 2,400 Climbing FlightAware ADS-B
03:49PM 44.7530 -73.8930 177° South 406 467 19,000 2,220 Climbing FlightAware ADS-B
03:49PM 44.6850 -73.8900 178° South 410 472 20,300 2,160 Climbing FlightAware ADS-B
03:50PM 44.6399 -73.8877 178° South 412 474 21,200 2,220 Climbing FlightAware ADS-B (CYOW)
03:50PM 44.6290 -73.8870 178° South 414 476 21,400 1,860 Climbing FlightAware ADS-B
03:50PM 44.5590 -73.8840 177° South 423 487 22,500 1,440 Climbing FlightAware ADS-B
03:51PM 44.4870 -73.8810 178° South 437 503 23,200 1,200 Climbing FlightAware ADS-B
03:52PM 44.4240 -73.8780 177° South 449 517 23,900 1,320 Climbing FlightAware ADS-B
03:52PM 44.3320 -73.8730 178° South 463 533 24,900 1,320 Climbing FlightAware ADS-B
03:53PM 44.2600 -73.8700 177° South 472 543 25,600 1,320 Climbing FlightAware ADS-B
03:53PM 44.2213 -73.8683 178° South 476 548 26,000 1,320 Climbing FlightAware ADS-B (CYOW)
03:54PM 44.1710 -73.8660 177° South 481 554 26,500 1,320 Climbing FlightAware ADS-B
03:54PM 44.1030 -73.8630 177° South 485 558 27,200 1,380 Climbing FlightAware ADS-B
03:55PM 44.0210 -73.8590 178° South 489 563 28,100 1,200 Climbing FlightAware ADS-B
03:55PM 44.0175 -73.8590 178° South 489 563 28,100 1,200 Level FlightAware ADS-B (CYOW)
03:55PM 43.9420 -73.8560 178° South 492 566 28,800 1,320 Climbing FlightAware ADS-B
03:56PM 43.8918 -73.8535 178° South 496 571 29,200 1,080 Climbing FlightAware ADS-B (CYOW)
03:57PM 43.7189 -73.8457 178° South 504 580 30,600 1,200 Climbing FlightAware ADS-B (CYOW)
03:58PM 43.5586 -73.8385 178° South 505 581 32,100 1,080 Climbing FlightAware ADS-B (CYOW)
03:59PM 43.4041 -73.8316 178° South 509 586 33,100 960 Climbing FlightAware ADS-B (CYOW)
04:00PM 43.3341 -73.8286 178° South 510 587 33,700 1,080 Climbing FlightAware ADS-B (CYOW)
04:00PM 43.2497 -73.8249 178° South 510 587 34,300 960 Climbing FlightAware ADS-B (CYOW)
04:01PM 43.1770 -73.8217 178° South 510 587 34,800 840 Climbing FlightAware ADS-B (CYOW)
04:01PM 43.1058 -73.8185 178° South 512 589 35,200 660 Climbing FlightAware ADS-B (CYOW)
04:02PM 43.0346 -73.8155 178° South 515 593 35,500 300 Climbing FlightAware ADS-B (CYOW)
04:04PM 42.7458 -73.8031 178° South 512 589 36,000 180 Climbing FlightAware ADS-B (CYOW)
04:04PM 42.6972 -73.8017 178° South 514 592 36,000  Level Boston Center
04:05PM 42.5292 -73.8072 181° South 511 588 36,000  Level Boston Center
04:06PM 42.3889 -73.8111 181° South 511 588 36,000  Level Boston Center
04:07PM 42.2489 -73.8128 181° South 509 586 36,000  Level Boston Center
04:13PM 41.4755 -74.0995 200° South 484 557 36,000  Level FlightAware ADS-B (KWWD)
04:14PM 41.3849 -74.1428 200° South 484 557 36,000  Level FlightAware ADS-B (KWWD)
04:15PM 41.2948 -74.1862 200° South 484 557 36,000  Level FlightAware ADS-B (KWWD)
04:15PM 41.1807 -74.2405 200° South 492 566 36,000  Level FlightAware ADS-B (KWWD)
04:16PM 41.0630 -74.2963 200° South 492 566 36,000  Level FlightAware ADS-B (KWWD)
04:17PM 40.9978 -74.3271 200° South 493 567 36,000  Level FlightAware ADS-B (KWWD)
04:18PM 40.8964 -74.3749 200° South 493 567 36,000  Level FlightAware ADS-B (KPHL)
04:18PM 40.8600 -74.3924 200° South 492 566 36,000  Level FlightAware ADS-B (KPHL)
04:19PM 40.7404 -74.4491 200° South 484 557 36,000  Level FlightAware ADS-B (KWWD)
04:19PM 40.6627 -74.4857 200° South 489 563 36,000  Level FlightAware ADS-B (KPHL)
04:20PM 40.5893 -74.5200 200° South 480 552 36,000  Level FlightAware ADS-B (KWWD)
04:21PM 40.5132 -74.5555 200° South 477 549 36,000  Level FlightAware ADS-B (KWWD)
04:21PM 40.4501 -74.5847 200° South 482 555 36,000  Level FlightAware ADS-B (KWWD)
04:22PM 40.3750 -74.6197 200° South 480 552 36,000  Level FlightAware ADS-B (KWWD)
04:22PM 40.2844 -74.6618 200° South 478 550 36,000  Level FlightAware ADS-B (KWWD)
04:23PM 40.2214 -74.6912 200° South 476 548 36,000  Level FlightAware ADS-B (KWWD)
04:24PM 40.1446 -74.7265 200° South 482 555 36,000  Level FlightAware ADS-B (KPHL)
04:24PM 40.0823 -74.7551 199° South 482 555 36,000  Level FlightAware ADS-B (KPHL)
04:25PM 40.0100 -74.7882 200° South 475 547 36,000  Level FlightAware ADS-B (KWWD)
04:25PM 39.9251 -74.8273 200° South 480 552 36,000  Level FlightAware ADS-B (KPHL)
04:26PM 39.8636 -74.8558 200° South 478 550 36,000  Level FlightAware ADS-B (KWWD)
04:26PM 39.8018 -74.8884 203° Southwest 475 547 36,000  Level FlightAware ADS-B (KPHL)
04:27PM 39.7083 -74.9394 203° Southwest 473 544 36,000  Level FlightAware ADS-B (KPHL)
04:28PM 39.6398 -74.9758 202° Southwest 471 542 36,000  Level FlightAware ADS-B (KWWD)
04:28PM 39.5597 -75.0178 202° Southwest 469 540 36,000  Level FlightAware ADS-B (KWWD)
04:29PM 39.4996 -75.0491 202° Southwest 469 540 36,000  Level FlightAware ADS-B (KWWD)
04:29PM 39.4399 -75.0801 202° Southwest 468 539 36,000  Level FlightAware ADS-B (KWWD)
04:30PM 39.3830 -75.1097 202° Southwest 466 536 36,000  Level FlightAware ADS-B (KPHL)
04:30PM 39.3250 -75.1465 212° Southwest 458 527 36,000  Level FlightAware ADS-B (KWWD)
04:31PM 39.2569 -75.1999 212° Southwest 463 533 36,000  Level FlightAware ADS-B (KPHL)
04:31PM 39.2019 -75.2432 212° Southwest 463 533 36,000  Level FlightAware ADS-B (KPHL)
04:32PM 39.1802 -75.2603 212° Southwest 456 525 36,000  Level FlightAware ADS-B (KWWD)
04:32PM 39.1191 -75.3027 203° Southwest 466 536 36,000  Level FlightAware ADS-B (KPHL)
04:32PM 39.0836 -75.3187 196° South 470 541 36,000  Level FlightAware ADS-B (KWWD)
04:33PM 38.9908 -75.3477 194° South 471 542 36,000  Level FlightAware ADS-B (KPHL)
04:34PM 38.9158 -75.3710 194° South 464 534 36,000  Level FlightAware ADS-B (KWWD)
04:34PM 38.8349 -75.3966 194° South 470 541 36,000  Level FlightAware ADS-B (KPHL)
04:35PM 38.7696 -75.4171 194° South 461 531 36,000  Level FlightAware ADS-B (KWWD)
04:36PM 38.6890 -75.4424 194° South 461 531 36,000  Level FlightAware ADS-B (KWWD)
04:36PM 38.6401 -75.4576 194° South 469 540 36,000  Level FlightAware ADS-B (KSBY)
04:37PM 38.5263 -75.4929 194° South 464 534 36,000  Level FlightAware ADS-B (KWWD)
04:37PM 38.4614 -75.5128 194° South 472 543 36,000  Level FlightAware ADS-B (KSBY)
04:38PM 38.3969 -75.5328 194° South 473 544 36,000  Level FlightAware ADS-B (KSBY)
04:38PM 38.3312 -75.5529 194° South 472 543 36,000  Level FlightAware ADS-B (KSBY)
04:39PM 38.2548 -75.5764 194° South 470 541 36,000  Level FlightAware ADS-B (KSBY)
04:40PM 38.1696 -75.6025 194° South 463 533 36,000  Level FlightAware ADS-B (KWWD)
04:40PM 38.1195 -75.6178 194° South 469 540 36,000  Level FlightAware ADS-B (KSBY)
04:41PM 38.0580 -75.6366 194° South 469 540 36,000  Level FlightAware ADS-B (KSBY)
04:41PM 37.9705 -75.6632 194° South 469 540 36,000  Level FlightAware ADS-B (KSBY)
04:42PM 37.8277 -75.7065 194° South 461 531 36,000  Level FlightAware ADS-B (KWWD)
04:43PM 37.7472 -75.7309 194° South 461 531 36,000  Level FlightAware ADS-B (KWWD)
04:44PM 37.6609 -75.7569 194° South 461 531 36,000  Level FlightAware ADS-B (KWWD)
04:45PM 37.5448 -75.7918 194° South 463 533 36,000  Level FlightAware ADS-B (KWWD)
04:45PM 37.4468 -75.8213 194° South 463 533 36,000  Level FlightAware ADS-B (KWWD)
04:46PM 37.3384 -75.8538 194° South 465 535 36,000  Level FlightAware ADS-B (KWWD)
04:47PM 37.2253 -75.8876 194° South 464 534 36,000  Level FlightAware ADS-B (KWWD)
04:48PM 37.1505 -75.9097 194° South 462 532 36,000  Level FlightAware ADS-B (KWWD)
04:48PM 37.0660 -75.9348 194° South 461 531 36,000  Level FlightAware ADS-B (KWWD)
04:49PM 36.9815 -75.9599 194° South 462 532 36,000  Level FlightAware ADS-B (KWWD)
04:50PM 36.8573 -75.9967 194° South 462 532 36,000  Level FlightAware ADS-B (KWWD)
04:51PM 36.6928 -76.0450 194° South 462 532 36,000  Level FlightAware ADS-B (KWWD)
04:52PM 36.6226 -76.0655 193° South 465 535 36,000  Level FlightAware ADS-B (KWWD)
04:52PM 36.5630 -76.0828 193° South 473 544 36,000  Level FlightAware ADS-B
04:53PM 36.4461 -76.1171 193° South 475 547 36,000  Level FlightAware ADS-B
04:54PM 36.3824 -76.1356 193° South 475 547 36,000  Level FlightAware ADS-B
04:54PM 36.3008 -76.1591 193° South 476 548 36,000  Level FlightAware ADS-B
04:55PM 36.2355 -76.1780 193° South 476 548 36,000  Level FlightAware ADS-B (KWWD)
04:55PM 36.1672 -76.1979 193° South 476 548 36,000  Level FlightAware ADS-B
04:56PM 36.0613 -76.2283 193° South 473 544 36,000  Level FlightAware ADS-B
04:57PM 35.9707 -76.2544 193° South 469 540 36,000  Level FlightAware ADS-B
04:58PM 35.8756 -76.2819 193° South 470 541 36,000  Level FlightAware ADS-B
04:58PM 35.8081 -76.3012 193° South 468 539 36,000  Level FlightAware ADS-B
04:59PM 35.7306 -76.3234 193° South 464 534 36,000  Level FlightAware ADS-B
04:59PM 35.6532 -76.3454 193° South 464 534 36,000  Level FlightAware ADS-B
05:00PM 35.5580 -76.3724 193° South 463 533 36,000  Level FlightAware ADS-B
05:01PM 35.4696 -76.3976 193° South 461 531 36,000  Level FlightAware ADS-B
05:01PM 35.4023 -76.4167 193° South 460 529 36,000  Level FlightAware ADS-B
05:02PM 35.3253 -76.4385 193° South 460 529 36,000  Level FlightAware ADS-B
05:03PM 35.2056 -76.4667 193° South 465 535 36,000  Level Washington Center
05:04PM 35.0842 -76.5058 195° South 454 522 36,000  Level Washington Center
05:05PM 34.9608 -76.5425 194° South 454 522 36,000  Level Washington Center
05:06PM 34.8333 -76.5739 191° South 454 522 36,000  Level Washington Center
05:07PM 34.7078 -76.6103 193° South 459 528 36,000  Level Washington Center
05:08PM 34.5844 -76.6467 194° South 459 528 36,000  Level Washington Center
05:09PM 34.4547 -76.6803 192° South 464 534 36,000  Level Washington Center
05:10PM 34.3292 -76.7161 193° South 464 534 36,000  Level Washington Center
05:11PM 34.2039 -76.7497 193° South 469 540 36,000  Level Washington Center
05:12PM 34.0783 -76.7831 192° South 469 540 36,000  Level Washington Center
05:13PM 33.9528 -76.8189 193° South 469 540 36,000  Level Washington Center
05:15PM 33.7244 -76.8800 193° South 443 510 36,000  Level Jacksonville Center
05:16PM 33.5967 -76.9161 193° South 451 519 36,000  Level Jacksonville Center
05:17PM 33.4711 -76.9494 192° South 470 541 36,000 -60 Level Jacksonville Center
05:18PM 33.3433 -76.9831 192° South 476 548 35,900  Descending Jacksonville Center
05:19PM 33.2175 -77.0161 192° South 471 542 36,000  Climbing Jacksonville Center
05:20PM 33.0939 -77.0492 193° South 466 536 35,900 -60 Descending Jacksonville Center
05:21PM 32.9703 -77.0819 193° South 466 536 35,900  Level Jacksonville Center
05:22PM 32.8444 -77.1172 193° South 471 542 36,000  Climbing Jacksonville Center
05:23PM 32.7208 -77.1497 192° South 465 535 36,000  Level Jacksonville Center
05:24PM 32.5992 -77.1822 193° South 465 535 36,000  Level Jacksonville Center
05:25PM 32.4794 -77.2119 192° South 459 528 36,000  Level Jacksonville Center
05:26PM 32.3578 -77.2464 193° South 454 522 36,000 -60 Level Jacksonville Center
05:27PM 32.2361 -77.2786 193° South 454 522 35,900  Descending Jacksonville Center
05:28PM 32.1144 -77.3106 193° South 449 517 36,000  Climbing Jacksonville Center
05:29PM 31.9967 -77.3372 191° South 443 510 36,000  Level Jacksonville Center
05:30PM 31.8750 -77.3714 193° South 449 517 36,000  Level Jacksonville Center
05:31PM 31.7553 -77.4031 193° South 449 517 36,000  Level Jacksonville Center
05:32PM 31.6356 -77.4322 192° South 449 517 36,000 -60 Level Jacksonville Center
05:33PM 31.5200 -77.4633 193° South 449 517 35,900  Descending Jacksonville Center
05:34PM 31.4044 -77.4944 193° South 444 511 36,000  Climbing Jacksonville Center
05:35PM 31.2908 -77.5203 191° South 439 505 36,000  Level Jacksonville Center
05:36PM 31.1731 -77.5514 193° South 434 499 36,000 480 Level Jacksonville Center
05:37PM 31.0572 -77.5772 191° South 427 491 37,000 900 Climbing Jacksonville Center
05:38PM 30.9397 -77.6081 193° South 427 491 37,900 480 Climbing Jacksonville Center
05:39PM 30.8242 -77.6411 194° South 427 491 38,000  Climbing Jacksonville Center
05:40PM 30.7064 -77.6744 194° South 427 491 38,000  Level Jacksonville Center
05:41PM 30.5864 -77.6953 189° South 427 491 38,000 -60 Level Jacksonville Center
05:43PM 30.3936 -77.7581 196° South 430 495 37,900  Descending Miami Center
05:44PM 30.2886 -77.7869 193° South 430 495 38,000  Climbing Miami Center
05:45PM 30.1503 -77.8236 193° South 428 493 37,900  Descending Miami Center
05:46PM 30.0347 -77.8553 193° South 427 491 38,000  Climbing Miami Center
05:47PM 29.9200 -77.8878 194° South 426 490 37,900  Descending Miami Center
05:48PM 29.8022 -77.9189 193° South 427 491 38,000  Climbing Miami Center
05:49PM 29.6828 -77.8964 171° South 436 502 37,900  Descending Miami Center
05:50PM 29.5622 -77.8631 166° South 441 507 38,000  Climbing Miami Center
05:51PM 29.4175 -77.8408 172° South 442 509 38,000  Level Miami Center
05:52PM 29.2942 -77.8200 172° South 442 509 38,000  Level Miami Center
05:53PM 29.1689 -77.8003 172° South 446 513 38,000  Level Miami Center
05:54PM 29.0467 -77.7797 172° South 446 513 38,000 -60 Level Miami Center
05:55PM 28.9239 -77.7606 172° South 446 513 37,900  Descending Miami Center
05:56PM 28.8011 -77.7408 172° South 446 513 38,000  Climbing Miami Center
05:57PM 28.6539 -77.7175 172° South 445 512 38,000  Level Miami Center
05:58PM 28.5289 -77.6964 172° South 445 512 38,000 -60 Level Miami Center
05:59PM 28.4108 -77.6783 172° South 445 512 37,900  Descending Miami Center
06:00PM 28.2894 -77.6586 172° South 442 509 38,000  Climbing Miami Center
06:01PM 28.1692 -77.6406 172° South 441 507 37,900  Descending Miami Center
06:02PM 28.0475 -77.6269 174° South 440 506 38,000  Climbing Miami Center
06:03PM 27.9264 -77.6217 178° South 439 505 37,900  Descending Miami Center
06:04PM 27.7819 -77.6139 177° South 435 501 38,000  Climbing Miami Center
06:05PM 27.6608 -77.6064 177° South 435 501 38,000 -60 Level Miami Center
06:06PM 27.5392 -77.5989 177° South 435 501 37,900 -60 Descending Miami Center
06:07PM 27.4178 -77.5933 178° South 435 501 37,900  Level Miami Center
06:08PM 27.2839 -77.5853 177° South 435 501 38,000  Climbing Miami Center
06:09PM 27.1647 -77.5792 177° South 428 493 37,900  Descending Miami Center
06:11PM 27.0392 -77.5717 177° South 443 510 38,000  Climbing Miami Center
06:12PM 26.9147 -77.5642 177° South 444 511 38,000 -180 Level Miami Center
06:17PM 26.1665 -77.5172 176° South 444 511 37,000 -120 Descending FlightAware ADS-B (KMIA)
06:20PM 25.7876 -77.4935 176° South 447 514 37,000  Level FlightAware ADS-B (KMIA)
06:21PM 25.6954 -77.4878 176° South 447 514 37,000  Level FlightAware ADS-B (KMIA)
06:22PM 25.6247 -77.4835 176° South 447 514 37,000  Level FlightAware ADS-B (KMIA)
06:23PM 25.5365 -77.4780 176° South 446 513 37,000  Level FlightAware ADS-B (KMIA)
06:23PM 25.4518 -77.4727 176° South 446 513 37,000  Level FlightAware ADS-B (KMIA)
06:24PM 25.3901 -77.4690 176° South 445 512 37,000  Level FlightAware ADS-B (KMIA)
06:25PM 25.2407 -77.4597 176° South 443 510 37,000  Level FlightAware ADS-B (KMIA)
06:26PM 25.1595 -77.4546 176° South 441 507 37,000  Level FlightAware ADS-B (KMIA)
06:26PM 25.0565 -77.4491 180° South 440 506 37,000  Level FlightAware ADS-B (KMIA)
06:27PM 25.0148 -77.4551 191° South 438 504 37,000  Level FlightAware ADS-B (KMIA)
06:27PM 24.9490 -77.4822 203° Southwest 439 505 37,000  Level FlightAware ADS-B (KMIA)
06:28PM 24.8739 -77.5172 203° Southwest 440 506 37,000  Level Miami Center
06:29PM 24.7614 -77.5703 203° Southwest 440 506 37,000  Level Miami Center
06:30PM 24.6467 -77.6231 203° Southwest 440 506 37,000  Level Miami Center
06:31PM 24.5333 -77.6764 203° Southwest 442 509 37,000 -300 Level Miami Center
06:32PM 24.4169 -77.7303 203° Southwest 445 512 36,500 -1,080 Descending Miami Center
06:33PM 24.3067 -77.7814 203° Southwest 440 506 34,900 -1,680 Descending Miami Center
06:34PM 24.2011 -77.8300 203° Southwest 425 489 33,100 -1,800 Descending Miami Center
06:35PM 24.0806 -77.8858 203° Southwest 405 466 31,200 -1,740 Descending Miami Center
06:36PM 23.9828 -77.9306 203° Southwest 393 452 29,600 -1,560 Descending Miami Center
06:38PM 23.8381 -77.9651 197° South  Level FlightAware Approximate
06:45PM 23.0200 -78.1775 192° South  Level FlightAware Approximate
06:46PM 22.9024 -78.2046 192° South  Level FlightAware Approximate
06:47PM 22.7847 -78.2312 192° South  Level FlightAware Approximate
06:48PM 22.6678 -78.2607 197° South  Level FlightAware Approximate
06:49PM 22.5528 -78.2961 190° South  Level FlightAware Approximate
06:50PM 22.4610 -78.3284 190° South  Level Estimated
06:51PM 22.4610 -78.3284 190° South  Level Estimated
06:52PM 22.4610 -78.3284 190° South  Level Estimated